createdAt,value
2018-09-28T00:01:34.217Z,52.30
2018-09-28T00:04:02.701Z,52.30
2018-09-28T00:06:31.120Z,52.70
2018-09-28T00:08:59.635Z,52.80
2018-09-28T00:11:28.063Z,53.00
2018-09-28T00:13:56.482Z,53.30
2018-09-28T00:16:25.487Z,53.60
2018-09-28T00:18:54.053Z,53.70
2018-09-28T00:21:22.483Z,53.60
2018-09-28T00:23:50.893Z,53.60
2018-09-28T00:26:19.274Z,53.60
2018-09-28T00:28:47.862Z,53.70
2018-09-28T00:31:16.303Z,53.80
2018-09-28T00:33:44.894Z,53.90
2018-09-28T00:36:13.314Z,54.10
2018-09-28T00:38:41.737Z,54.30
2018-09-28T00:41:10.145Z,54.90
2018-09-28T00:43:38.580Z,54.40
2018-09-28T00:46:06.996Z,54.30
2018-09-28T00:48:35.568Z,54.20
2018-09-28T00:51:04.003Z,54.40
2018-09-28T00:53:32.441Z,54.50
2018-09-28T00:56:01.719Z,54.60
2018-09-28T00:58:30.830Z,54.30
2018-09-28T01:00:59.232Z,54.50
2018-09-28T01:03:27.795Z,54.60
2018-09-28T01:05:57.650Z,54.60
2018-09-28T01:08:26.066Z,54.80
2018-09-28T01:10:54.480Z,54.90
2018-09-28T01:13:22.913Z,54.90
2018-09-28T01:15:51.349Z,55.00
2018-09-28T01:18:19.796Z,55.20
2018-09-28T01:20:48.236Z,55.40
2018-09-28T01:23:16.712Z,55.40
2018-09-28T01:25:45.946Z,55.40
2018-09-28T01:28:14.389Z,55.40
2018-09-28T01:30:42.873Z,55.40
2018-09-28T01:33:11.325Z,55.50
2018-09-28T01:35:39.807Z,55.70
2018-09-28T01:38:08.197Z,55.70
2018-09-28T01:40:36.717Z,55.80
2018-09-28T01:43:05.211Z,55.80
2018-09-28T01:45:34.841Z,56.00
2018-09-28T01:48:03.367Z,56.00
2018-09-28T01:50:32.224Z,55.90
2018-09-28T01:53:00.602Z,55.90
2018-09-28T01:55:28.997Z,56.60
2018-09-28T01:57:58.400Z,56.00
2018-09-28T02:00:27.477Z,56.10
2018-09-28T02:02:55.887Z,56.20
2018-09-28T02:05:24.501Z,56.30
2018-09-28T02:07:54.791Z,56.20
2018-09-28T02:10:23.247Z,56.30
2018-09-28T02:12:51.682Z,56.50
2018-09-28T02:15:20.117Z,56.90
2018-09-28T02:17:48.777Z,57.30
2018-09-28T02:20:17.289Z,57.30
2018-09-28T02:22:46.004Z,57.30
2018-09-28T02:25:14.583Z,57.40
2018-09-28T02:27:42.996Z,57.60
2018-09-28T02:30:11.542Z,57.80
2018-09-28T02:32:39.964Z,57.70
2018-09-28T02:35:08.354Z,57.50
2018-09-28T02:37:36.832Z,57.50
2018-09-28T02:40:05.690Z,57.70
2018-09-28T02:42:34.205Z,57.60
2018-09-28T02:45:02.668Z,57.60
2018-09-28T02:47:31.125Z,57.70
2018-09-28T02:49:59.591Z,58.50
2018-09-28T02:52:28.057Z,58.10
2018-09-28T02:54:56.444Z,57.90
2018-09-28T02:57:27.021Z,57.70
2018-09-28T02:59:57.409Z,57.40
2018-09-28T03:02:26.180Z,57.50
2018-09-28T03:04:54.565Z,57.60
2018-09-28T03:07:23.183Z,57.50
2018-09-28T03:09:51.612Z,57.60
2018-09-28T03:12:20.229Z,57.60
2018-09-28T03:14:48.634Z,57.60
2018-09-28T03:17:17.099Z,57.40
2018-09-28T03:19:45.493Z,57.50
2018-09-28T03:22:14.145Z,57.50
2018-09-28T03:24:42.564Z,57.50
2018-09-28T03:27:11.057Z,57.30
2018-09-28T03:29:39.568Z,57.30
2018-09-28T03:32:08.121Z,57.40
2018-09-28T03:34:36.555Z,57.40
2018-09-28T03:37:05.009Z,57.60
2018-09-28T03:39:33.432Z,57.70
2018-09-28T03:42:01.903Z,57.60
2018-09-28T03:44:30.289Z,57.60
2018-09-28T03:46:58.713Z,57.70
2018-09-28T03:49:27.093Z,58.50
2018-09-28T03:51:55.702Z,59.40
2018-09-28T03:54:24.115Z,59.30
2018-09-28T03:56:52.587Z,59.30
2018-09-28T03:59:20.988Z,58.80
2018-09-28T04:01:49.454Z,58.60
2018-09-28T04:04:17.901Z,58.70
2018-09-28T04:06:46.400Z,59.00
2018-09-28T04:09:15.181Z,58.60
2018-09-28T04:11:43.882Z,58.70
2018-09-28T04:14:12.252Z,58.40
2018-09-28T04:16:40.728Z,58.40
2018-09-28T04:19:09.123Z,58.50
2018-09-28T04:21:37.559Z,59.30
2018-09-28T04:24:05.988Z,59.30
2018-09-28T04:26:34.494Z,59.90
2018-09-28T04:29:02.907Z,59.50
2018-09-28T04:31:31.389Z,59.30
2018-09-28T04:33:59.797Z,59.00
2018-09-28T04:36:28.265Z,59.30
2018-09-28T04:38:56.696Z,59.10
2018-09-28T04:41:25.135Z,59.40
2018-09-28T04:43:53.593Z,59.40
2018-09-28T04:46:22.033Z,59.20
2018-09-28T04:48:50.421Z,59.50
2018-09-28T04:51:19.432Z,59.20
2018-09-28T04:53:48.296Z,59.20
2018-09-28T04:56:16.741Z,59.50
2018-09-28T04:58:45.198Z,59.50
2018-09-28T05:01:13.600Z,59.60
2018-09-28T05:03:42.044Z,59.90
2018-09-28T05:06:10.596Z,60.00
2018-09-28T05:08:38.992Z,60.20
2018-09-28T05:11:07.693Z,60.50
2018-09-28T05:13:36.161Z,60.20
2018-09-28T05:16:04.727Z,60.00
2018-09-28T05:18:33.789Z,60.00
2018-09-28T05:21:02.255Z,60.50
2018-09-28T05:23:30.681Z,61.10
2018-09-28T05:25:59.137Z,61.70
2018-09-28T05:28:27.511Z,62.30
2018-09-28T05:30:56.114Z,63.20
2018-09-28T05:33:24.501Z,64.10
2018-09-28T05:35:53.241Z,64.30
2018-09-28T05:38:21.635Z,64.00
2018-09-28T05:40:50.100Z,64.30
2018-09-28T05:43:19.584Z,65.00
2018-09-28T05:45:48.102Z,65.30
2018-09-28T05:48:16.582Z,66.10
2018-09-28T05:50:45.265Z,66.80
2018-09-28T05:53:13.851Z,67.00
2018-09-28T05:55:42.544Z,67.30
2018-09-28T05:58:16.322Z,68.10
2018-09-28T06:00:50.894Z,67.60
2018-09-28T06:03:20.559Z,67.80
2018-09-28T06:05:54.325Z,67.80
2018-09-28T06:08:22.792Z,68.00
2018-09-28T06:10:51.225Z,67.90
2018-09-28T06:13:21.030Z,68.10
2018-09-28T06:15:49.612Z,68.10
2018-09-28T06:18:18.049Z,68.00
2018-09-28T06:20:46.811Z,68.00
2018-09-28T06:23:15.261Z,67.70
2018-09-28T06:25:43.985Z,67.80
2018-09-28T06:28:12.424Z,67.80
2018-09-28T06:30:40.926Z,67.50
2018-09-28T06:33:09.950Z,67.40
2018-09-28T06:35:38.460Z,66.80
2018-09-28T06:38:06.920Z,66.60
2018-09-28T06:40:35.470Z,66.50
2018-09-28T06:43:03.910Z,66.60
2018-09-28T06:45:32.322Z,66.70
2018-09-28T06:48:00.743Z,66.40
2018-09-28T06:50:29.131Z,66.00
2018-09-28T06:52:57.602Z,66.30
2018-09-28T06:55:26.503Z,66.30
2018-09-28T06:57:54.912Z,66.40
2018-09-28T07:00:23.351Z,66.30
2018-09-28T07:02:55.724Z,66.20
2018-09-28T07:05:24.268Z,66.00
2018-09-28T07:07:53.224Z,66.00
2018-09-28T07:10:23.526Z,65.70
2018-09-28T07:12:52.289Z,65.50
2018-09-28T07:15:20.894Z,65.40
2018-09-28T07:17:50.207Z,65.30
2018-09-28T07:20:19.300Z,65.00
2018-09-28T07:22:47.742Z,64.60
2018-09-28T07:25:16.426Z,64.50
2018-09-28T07:27:44.849Z,64.50
2018-09-28T07:30:13.353Z,64.40
2018-09-28T07:32:41.845Z,63.80
2018-09-28T07:35:10.364Z,63.90
2018-09-28T07:37:39.687Z,63.70
2018-09-28T07:40:10.171Z,63.10
2018-09-28T07:42:40.103Z,62.70
2018-09-28T07:45:09.019Z,62.70
2018-09-28T07:47:37.457Z,62.60
2018-09-28T07:50:05.849Z,62.00
2018-09-28T07:52:34.657Z,61.60
2018-09-28T07:55:03.044Z,61.70
2018-09-28T07:57:31.773Z,61.70
2018-09-28T08:00:00.231Z,61.50
2018-09-28T08:02:28.948Z,61.20
2018-09-28T08:04:57.558Z,60.50
2018-09-28T08:07:26.259Z,60.60
2018-09-28T08:09:55.012Z,59.90
2018-09-28T08:12:23.434Z,59.90
2018-09-28T08:14:51.883Z,59.90
2018-09-28T08:17:20.563Z,59.50
2018-09-28T08:19:48.978Z,59.20
2018-09-28T08:22:17.398Z,60.50
2018-09-28T08:24:46.111Z,61.50
2018-09-28T08:27:14.609Z,60.80
2018-09-28T08:29:43.025Z,60.70
2018-09-28T08:32:11.402Z,60.50
2018-09-28T08:34:39.897Z,60.80
2018-09-28T08:37:08.270Z,60.40
2018-09-28T08:39:36.696Z,60.50
2018-09-28T08:42:05.126Z,60.40
2018-09-28T08:44:33.530Z,60.60
2018-09-28T08:47:02.022Z,60.80
2018-09-28T08:49:30.443Z,60.60
2018-09-28T08:51:59.453Z,61.20
2018-09-28T08:54:27.897Z,61.10
2018-09-28T08:56:56.320Z,61.30
2018-09-28T08:59:25.009Z,60.60
2018-09-28T09:01:53.410Z,60.20
2018-09-28T09:04:22.280Z,60.10
2018-09-28T09:06:50.947Z,60.00
2018-09-28T09:09:19.653Z,59.30
2018-09-28T09:11:48.049Z,59.20
2018-09-28T09:14:16.531Z,59.10
2018-09-28T09:16:48.412Z,59.10
2018-09-28T09:19:17.823Z,59.10
2018-09-28T09:21:47.548Z,58.60
2018-09-28T09:24:16.050Z,58.20
2018-09-28T09:26:44.665Z,57.70
2018-09-28T09:29:14.846Z,57.70
2018-09-28T09:31:44.261Z,57.10
2018-09-28T09:34:12.688Z,57.30
2018-09-28T09:36:41.403Z,57.10
2018-09-28T09:39:10.449Z,57.30
2018-09-28T09:41:40.611Z,56.50
2018-09-28T09:44:09.125Z,55.80
2018-09-28T09:46:39.756Z,56.20
2018-09-28T09:49:09.916Z,57.00
2018-09-28T09:51:38.727Z,56.60
2018-09-28T09:54:08.980Z,56.10
2018-09-28T09:56:37.409Z,56.00
2018-09-28T09:59:06.148Z,56.20
2018-09-28T10:01:39.864Z,55.80
2018-09-28T10:04:09.375Z,55.70
2018-09-28T10:06:38.013Z,54.80
2018-09-28T10:09:09.300Z,53.80
2018-09-28T10:11:37.768Z,54.90
2018-09-28T10:14:06.436Z,53.30
2018-09-28T10:16:34.846Z,53.60
2018-09-28T10:19:03.195Z,53.30
2018-09-28T10:21:32.208Z,52.70
2018-09-28T10:24:00.847Z,52.40
2018-09-28T10:26:29.572Z,52.50
2018-09-28T10:28:57.982Z,53.00
2018-09-28T10:31:26.390Z,53.30
2018-09-28T10:33:54.869Z,53.50
2018-09-28T10:36:25.242Z,53.60
2018-09-28T10:38:54.360Z,53.10
2018-09-28T10:41:25.022Z,51.90
2018-09-28T10:43:53.791Z,51.80
2018-09-28T10:46:22.483Z,50.60
2018-09-28T10:48:50.825Z,49.80
2018-09-28T10:51:19.458Z,48.60
2018-09-28T10:53:48.041Z,47.60
2018-09-28T10:56:16.461Z,47.00
2018-09-28T10:58:46.550Z,47.10
2018-09-28T11:01:14.954Z,47.20
2018-09-28T11:03:44.000Z,45.80
2018-09-28T11:06:13.258Z,46.50
2018-09-28T11:08:41.656Z,47.00
2018-09-28T11:11:10.010Z,45.30
2018-09-28T11:13:38.423Z,45.30
2018-09-28T11:16:08.584Z,43.80
2018-09-28T11:18:37.784Z,43.20
2018-09-28T11:21:06.461Z,42.90
2018-09-28T11:23:35.557Z,43.40
2018-09-28T11:26:03.919Z,43.00
2018-09-28T11:28:32.335Z,42.20
2018-09-28T11:31:00.760Z,42.30
2018-09-28T11:33:29.196Z,42.50
2018-09-28T11:35:57.491Z,43.00
2018-09-28T11:38:25.859Z,42.40
2018-09-28T11:40:54.219Z,43.10
2018-09-28T11:43:23.065Z,42.50
2018-09-28T11:45:51.511Z,42.50
2018-09-28T11:48:19.833Z,42.00
2018-09-28T11:50:48.336Z,43.00
2018-09-28T11:53:16.730Z,42.60
2018-09-28T11:55:45.183Z,42.80
2018-09-28T11:58:13.554Z,42.90
2018-09-28T12:00:41.948Z,42.80
2018-09-28T12:03:10.583Z,44.20
2018-09-28T12:05:38.913Z,44.30
2018-09-28T12:08:07.706Z,44.40
2018-09-28T12:10:36.080Z,43.00
2018-09-28T12:13:04.481Z,42.50
2018-09-28T12:15:33.084Z,42.90
2018-09-28T12:18:01.627Z,41.40
2018-09-28T12:20:30.228Z,40.50
2018-09-28T12:22:58.663Z,40.30
2018-09-28T12:25:27.511Z,38.80
2018-09-28T12:27:55.869Z,37.80
2018-09-28T12:30:24.437Z,37.90
2018-09-28T12:32:52.775Z,38.10
2018-09-28T12:35:21.494Z,37.40
2018-09-28T12:37:49.884Z,36.80
2018-09-28T12:40:18.467Z,37.20
2018-09-28T12:42:46.981Z,36.60
2018-09-28T12:45:15.493Z,34.70
2018-09-28T12:47:43.858Z,34.20
2018-09-28T12:50:12.294Z,34.10
2018-09-28T12:52:40.656Z,34.80
2018-09-28T12:55:09.047Z,34.60
2018-09-28T12:57:37.496Z,33.40
2018-09-28T13:00:06.189Z,33.10
2018-09-28T13:02:34.609Z,33.80
2018-09-28T13:05:02.950Z,32.60
2018-09-28T13:07:31.328Z,32.30
2018-09-28T13:09:59.706Z,32.90
2018-09-28T13:12:28.275Z,32.40
2018-09-28T13:14:56.991Z,32.60
2018-09-28T13:17:25.411Z,33.70
2018-09-28T13:19:53.807Z,34.50
2018-09-28T13:22:22.594Z,35.10
2018-09-28T13:24:51.023Z,35.30
2018-09-28T13:27:19.523Z,36.50
2018-09-28T13:29:48.359Z,36.20
2018-09-28T13:32:16.767Z,36.70
2018-09-28T13:34:45.097Z,38.30
2018-09-28T13:37:13.540Z,37.50
2018-09-28T13:39:41.951Z,37.80
2018-09-28T13:42:10.364Z,36.60
2018-09-28T13:44:38.804Z,37.20
2018-09-28T13:47:07.666Z,35.40
2018-09-28T13:49:36.088Z,34.70
2018-09-28T13:52:04.534Z,34.20
2018-09-28T13:54:32.940Z,34.90
2018-09-28T13:57:01.359Z,35.00
2018-09-28T13:59:29.727Z,35.90
2018-09-28T14:01:58.143Z,36.60
2018-09-28T14:04:26.592Z,36.80
2018-09-28T14:06:55.152Z,37.30
2018-09-28T14:09:23.518Z,37.30
2018-09-28T14:11:51.936Z,37.40
2018-09-28T14:14:20.448Z,37.90
2018-09-28T14:16:48.880Z,38.20
2018-09-28T14:19:17.209Z,39.10
2018-09-28T14:21:45.619Z,39.70
2018-09-28T14:24:14.064Z,38.80
2018-09-28T14:26:42.750Z,38.60
2018-09-28T14:29:11.321Z,37.70
2018-09-28T14:31:39.797Z,36.80
2018-09-28T14:34:08.255Z,37.10
2018-09-28T14:37:51.119Z,36.00
2018-09-28T14:40:19.548Z,34.60
2018-09-28T14:42:48.003Z,34.00
2018-09-28T14:45:16.619Z,32.00
2018-09-28T14:47:45.191Z,31.00
2018-09-28T14:50:13.662Z,29.80
2018-09-28T14:52:42.118Z,29.00
2018-09-28T14:55:10.518Z,28.90
2018-09-28T14:57:38.919Z,28.40
2018-09-28T15:00:09.149Z,28.90
2018-09-28T15:02:38.027Z,29.40
2018-09-28T15:05:06.552Z,29.60
2018-09-28T15:07:35.051Z,30.00
2018-09-28T15:10:07.490Z,30.20
2018-09-28T15:12:35.954Z,30.20
2018-09-28T15:15:04.440Z,30.40
2018-09-28T15:17:32.894Z,31.70
2018-09-28T15:20:01.411Z,32.40
2018-09-28T15:22:29.815Z,32.80
2018-09-28T15:24:58.267Z,32.00
2018-09-28T15:27:26.708Z,33.20
2018-09-28T15:29:55.106Z,33.70
2018-09-28T15:32:23.482Z,34.10
2018-09-28T15:34:51.855Z,33.70
2018-09-28T15:37:20.271Z,32.70
2018-09-28T15:39:48.719Z,32.00
2018-09-28T15:42:18.149Z,31.50
2018-09-28T15:44:46.523Z,31.80
2018-09-28T15:47:14.951Z,31.90
2018-09-28T15:49:43.603Z,32.80
2018-09-28T15:52:11.967Z,31.90
2018-09-28T15:54:40.391Z,31.70
2018-09-28T15:57:08.862Z,31.90
2018-09-28T15:59:37.508Z,31.90
2018-09-28T16:02:05.940Z,32.60
2018-09-28T16:04:34.419Z,33.30
2018-09-28T16:07:07.151Z,34.00
2018-09-28T16:09:35.600Z,34.90
2018-09-28T16:12:05.572Z,35.40
2018-09-28T16:14:33.950Z,36.00
2018-09-28T16:17:02.435Z,36.50
2018-09-28T16:19:30.876Z,37.00
2018-09-28T16:22:00.012Z,37.10
2018-09-28T16:24:28.423Z,37.40
2018-09-28T16:26:56.837Z,37.50
2018-09-28T16:29:29.298Z,37.30
2018-09-28T16:31:57.676Z,37.20
2018-09-28T16:34:26.308Z,37.20
2018-09-28T16:36:54.702Z,37.60
2018-09-28T16:39:23.143Z,38.00
2018-09-28T16:41:51.499Z,38.40
2018-09-28T16:44:20.149Z,38.70
2018-09-28T16:46:48.557Z,38.90
2018-09-28T16:49:16.953Z,38.70
2018-09-28T16:51:45.466Z,39.00
2018-09-28T16:54:13.937Z,39.10
2018-09-28T16:56:42.467Z,39.40
2018-09-28T16:59:10.851Z,39.80
2018-09-28T17:01:41.028Z,39.70
2018-09-28T17:04:10.219Z,39.70
2018-09-28T17:06:38.676Z,40.10
2018-09-28T17:09:08.269Z,40.70
2018-09-28T17:11:36.640Z,40.80
2018-09-28T17:14:05.228Z,40.80
2018-09-28T17:16:33.808Z,41.10
2018-09-28T17:19:02.484Z,41.30
2018-09-28T17:21:31.050Z,41.60
2018-09-28T17:23:59.553Z,41.60
2018-09-28T17:26:32.133Z,41.80
2018-09-28T17:29:00.566Z,42.20
2018-09-28T17:31:28.923Z,42.20
2018-09-28T17:33:58.252Z,42.30
2018-09-28T17:36:26.638Z,42.60
2018-09-28T17:38:55.782Z,42.70
2018-09-28T17:41:24.238Z,42.70
2018-09-28T17:43:52.598Z,43.10
2018-09-28T17:46:21.006Z,43.20
2018-09-28T17:48:49.524Z,43.30
2018-09-28T17:51:18.242Z,43.70
2018-09-28T17:53:47.137Z,43.70
2018-09-28T17:56:15.856Z,43.60
2018-09-28T17:58:44.199Z,43.80
2018-09-28T18:01:13.265Z,43.90
2018-09-28T18:03:41.648Z,44.00
2018-09-28T18:06:10.407Z,44.20
2018-09-28T18:08:38.767Z,44.90
2018-09-28T18:11:07.406Z,44.40
2018-09-28T18:13:36.719Z,44.60
2018-09-28T18:16:05.160Z,44.50
2018-09-28T18:18:33.671Z,44.70
2018-09-28T18:21:02.128Z,44.80
2018-09-28T18:23:30.518Z,44.80
2018-09-28T18:25:59.622Z,45.00
2018-09-28T18:28:27.987Z,45.20
2018-09-28T18:30:56.439Z,45.00
2018-09-28T18:33:25.008Z,45.00
2018-09-28T18:35:53.376Z,45.40
2018-09-28T18:38:21.827Z,45.20
2018-09-28T18:40:51.033Z,45.30
2018-09-28T18:43:19.438Z,45.30
2018-09-28T18:45:47.883Z,45.50
2018-09-28T18:48:16.387Z,45.70
2018-09-28T18:50:44.872Z,46.00
2018-09-28T18:53:13.457Z,46.00
2018-09-28T18:55:42.278Z,46.10
2018-09-28T18:58:10.647Z,46.60
2018-09-28T19:00:39.141Z,46.10
2018-09-28T19:03:07.561Z,46.40
2018-09-28T19:05:36.359Z,46.40
2018-09-28T19:08:04.793Z,46.50
2018-09-28T19:10:33.253Z,46.50
2018-09-28T19:13:01.761Z,46.30
2018-09-28T19:15:30.056Z,46.40
2018-09-28T19:17:58.633Z,46.30
2018-09-28T19:20:27.002Z,46.30
2018-09-28T19:22:55.428Z,47.00
2018-09-28T19:25:23.846Z,47.60
2018-09-28T19:27:52.257Z,46.70
2018-09-28T19:30:20.762Z,46.50
2018-09-28T19:32:49.233Z,46.50
2018-09-28T19:35:17.713Z,46.80
2018-09-28T19:37:46.122Z,46.90
2018-09-28T19:40:14.684Z,47.10
2018-09-28T19:42:43.098Z,47.40
2018-09-28T19:45:11.755Z,47.50
2018-09-28T19:47:40.879Z,47.60
2018-09-28T19:50:09.338Z,47.80
2018-09-28T19:52:37.783Z,48.00
2018-09-28T19:55:06.189Z,48.20
2018-09-28T19:57:34.746Z,48.40
2018-09-28T20:00:03.171Z,48.50
2018-09-28T20:02:31.612Z,48.60
2018-09-28T20:05:00.187Z,48.60
2018-09-28T20:07:28.584Z,49.00
2018-09-28T20:09:57.080Z,49.10
2018-09-28T20:12:25.514Z,49.20
2018-09-28T20:14:53.991Z,49.40
2018-09-28T20:17:23.450Z,49.30
2018-09-28T20:19:51.874Z,49.20
2018-09-28T20:22:20.306Z,49.10
2018-09-28T20:24:48.697Z,48.90
2018-09-28T20:27:17.102Z,49.00
2018-09-28T20:29:45.446Z,49.30
2018-09-28T20:32:14.611Z,48.80
2018-09-28T20:34:43.015Z,48.80
2018-09-28T20:37:11.676Z,48.80
2018-09-28T20:39:40.084Z,48.80
2018-09-28T20:42:08.535Z,48.80
2018-09-28T20:44:37.130Z,49.00
2018-09-28T20:47:05.710Z,48.90
2018-09-28T20:49:34.287Z,48.70
2018-09-28T20:52:02.726Z,48.80
2018-09-28T20:54:31.215Z,48.80
2018-09-28T20:56:59.649Z,48.90
2018-09-28T20:59:28.156Z,48.90
2018-09-28T21:01:56.591Z,48.80
2018-09-28T21:04:24.993Z,49.10
2018-09-28T21:06:54.157Z,49.10
2018-09-28T21:09:22.585Z,49.40
2018-09-28T21:11:50.973Z,49.50
2018-09-28T21:14:19.484Z,49.70
2018-09-28T21:16:47.910Z,49.90
2018-09-28T21:19:17.269Z,50.00
2018-09-28T21:21:46.357Z,50.10
2018-09-28T21:24:14.808Z,50.20
2018-09-28T21:26:43.210Z,50.50
2018-09-28T21:29:11.954Z,50.60
2018-09-28T21:31:40.396Z,50.70
2018-09-28T21:34:08.836Z,50.90
2018-09-28T21:36:37.242Z,51.60
2018-09-28T21:39:07.855Z,51.10
2018-09-28T21:41:36.207Z,51.30
2018-09-28T21:44:04.823Z,51.20
2018-09-28T21:46:33.414Z,51.30
2018-09-28T21:49:01.889Z,51.30
2018-09-28T21:51:30.268Z,51.40
2018-09-28T21:53:58.766Z,51.30
2018-09-28T21:56:27.246Z,51.30
2018-09-28T21:58:55.630Z,52.00
2018-09-28T22:01:23.977Z,51.40
2018-09-28T22:03:52.402Z,51.40
2018-09-28T22:06:20.812Z,51.50
2018-09-28T22:08:49.163Z,51.60
2018-09-28T22:11:17.839Z,51.60
2018-09-28T22:13:46.181Z,51.70
2018-09-28T22:16:14.713Z,51.80
2018-09-28T22:18:43.101Z,51.80
2018-09-28T22:21:11.699Z,51.80
2018-09-28T22:23:40.235Z,52.10
2018-09-28T22:26:08.639Z,52.00
2018-09-28T22:28:38.597Z,52.00
2018-09-28T22:31:07.091Z,52.10
2018-09-28T22:33:35.480Z,52.40
2018-09-28T22:36:04.304Z,52.50
2018-09-28T22:38:32.686Z,52.50
2018-09-28T22:41:01.111Z,52.80
2018-09-28T22:43:29.783Z,52.60
2018-09-28T22:45:58.477Z,52.90
2018-09-28T22:48:26.852Z,52.80
2018-09-28T22:50:55.186Z,52.80
2018-09-28T22:53:23.543Z,52.90
2018-09-28T22:55:52.039Z,52.80
2018-09-28T22:58:20.655Z,52.80
2018-09-28T23:00:49.056Z,52.90
2018-09-28T23:03:17.655Z,53.00
2018-09-28T23:05:46.144Z,53.00
2018-09-28T23:08:14.508Z,52.90
2018-09-28T23:10:42.944Z,53.00
2018-09-28T23:13:11.722Z,52.80
2018-09-28T23:15:41.135Z,53.30
2018-09-28T23:18:09.479Z,53.10
2018-09-28T23:20:37.928Z,53.10
2018-09-28T23:23:06.366Z,53.00
2018-09-28T23:25:34.748Z,53.10
2018-09-28T23:28:03.126Z,53.20
2018-09-28T23:30:31.475Z,53.00
2018-09-28T23:33:00.567Z,53.10
2018-09-28T23:35:29.170Z,53.00
2018-09-28T23:37:57.567Z,53.10
2018-09-28T23:40:26.025Z,53.30
2018-09-28T23:42:54.558Z,53.60
2018-09-28T23:45:22.898Z,54.50
2018-09-28T23:47:51.269Z,54.20
2018-09-28T23:50:19.635Z,54.50
2018-09-28T23:52:48.196Z,54.40
2018-09-28T23:55:16.575Z,54.20
2018-09-28T23:57:45.244Z,53.90
